Time;durP1;ratioP1;P1;durP2;ratioP2;P2;SDS_P1;SDS_P2;PMS_P1;PMS_P2;Temp;Humidity;BMP_temperature;BMP_pressure;BME280_temperature;BME280_humidity;BME280_pressure;Samples;Min_cycle;Max_cycle;Signal;HPM_P1;HPM_P2
2023/01/02 00:03:06;;;;;;;6.93;5.43;;;;;;;13.73;64.59;100190.72;10345428;28;20558;-61
2023/01/02 00:08:08;;;;;;;8.45;5.68;;;;;;;13.69;64.92;100183.16;10338213;28;20045;-61
2023/01/02 00:13:09;;;;;;;8.55;5.25;;;;;;;13.64;64.80;100186.25;10294866;28;20605;-61
2023/01/02 00:18:13;;;;;;;8.60;5.38;;;;;;;13.57;65.07;100185.16;10345044;28;20049;-63
2023/01/02 00:23:14;;;;;;;7.38;4.57;;;;;;;13.56;65.16;100172.78;10350129;28;20049;-60
2023/01/02 00:28:16;;;;;;;7.28;4.63;;;;;;;13.52;65.26;100158.00;10317218;28;20739;-60
2023/01/02 00:33:21;;;;;;;6.28;4.65;;;;;;;13.45;65.74;100160.44;10342833;28;20065;-65
2023/01/02 00:38:22;;;;;;;8.80;5.90;;;;;;;13.46;65.76;100154.06;10318055;28;20056;-60
2023/01/02 00:43:24;;;;;;;8.32;4.60;;;;;;;13.46;65.90;100150.56;10337238;28;20046;-62
2023/01/02 00:48:25;;;;;;;7.22;4.90;;;;;;;13.44;65.75;100153.38;10345128;28;20067;-61
2023/01/02 00:53:27;;;;;;;7.43;5.15;;;;;;;13.41;66.08;100145.66;10346705;28;20160;-60
2023/01/02 00:58:28;;;;;;;7.80;5.45;;;;;;;13.42;66.08;100140.16;10329418;28;20469;-59
2023/01/02 01:03:30;;;;;;;7.70;5.00;;;;;;;13.33;65.99;100141.00;10324662;28;20144;-61
2023/01/02 01:08:33;;;;;;;7.57;4.75;;;;;;;13.30;66.26;100133.28;10353430;28;20120;-64
2023/01/02 01:13:36;;;;;;;6.82;4.47;;;;;;;13.33;66.10;100122.28;10357641;28;20945;-60
2023/01/02 01:18:39;;;;;;;5.18;3.90;;;;;;;13.36;65.93;100130.06;10365283;28;20119;-64
2023/01/02 01:23:41;;;;;;;8.05;4.40;;;;;;;13.35;66.12;100124.84;10346253;28;20060;-65
2023/01/02 01:28:42;;;;;;;6.20;4.38;;;;;;;13.37;65.79;100118.34;10351774;28;20058;-61
2023/01/02 01:33:45;;;;;;;8.00;4.35;;;;;;;13.41;65.67;100117.06;10340212;28;20053;-64
2023/01/02 01:38:47;;;;;;;6.28;4.05;;;;;;;13.49;65.71;100119.03;10319216;28;20550;-61
2023/01/02 01:43:51;;;;;;;5.57;4.45;;;;;;;13.47;65.35;100120.19;10306616;28;20057;-62
2023/01/02 01:49:03;;;;;;;5.78;4.32;;;;;;;13.39;65.52;100132.44;10330995;28;20140;-63
2023/01/02 01:54:09;;;;;;;6.90;4.47;;;;;;;13.41;65.54;100108.22;10349250;28;20711;-62
2023/01/02 01:59:11;;;;;;;8.00;4.30;;;;;;;13.39;65.76;100120.88;10340899;28;20049;-61
2023/01/02 02:04:13;;;;;;;7.70;3.50;;;;;;;13.40;65.48;100125.25;10309463;28;20144;-61
2023/01/02 02:09:17;;;;;;;6.82;3.92;;;;;;;13.38;65.34;100117.38;10347665;28;20077;-62
2023/01/02 02:14:19;;;;;;;6.72;3.40;;;;;;;13.34;65.42;100115.13;10334908;28;20163;-62
2023/01/02 02:20:01;;;;;;;7.30;3.72;;;;;;;13.30;65.40;100119.03;10349079;28;20568;-62
2023/01/02 02:25:46;;;;;;;8.18;4.47;;;;;;;13.29;65.69;100120.88;10343907;28;20045;-62
2023/01/02 02:30:54;;;;;;;7.95;3.97;;;;;;;13.23;65.40;100105.44;10327859;28;20760;-61
2023/01/02 02:36:28;;;;;;;5.38;3.35;;;;;;;13.14;65.74;100098.28;10325292;28;20200;-61
2023/01/02 02:41:44;;;;;;;6.63;4.43;;;;;;;13.09;66.02;100098.72;10305199;28;20596;-61
2023/01/02 02:47:17;;;;;;;6.65;4.00;;;;;;;13.11;65.67;100093.22;10316201;28;20201;-61
2023/01/02 02:52:35;;;;;;;9.35;4.13;;;;;;;13.16;65.30;100090.94;10318974;28;20276;-62
2023/01/02 02:57:43;;;;;;;8.25;4.47;;;;;;;13.11;64.96;100088.72;10323240;28;20072;-64
2023/01/02 03:02:45;;;;;;;7.65;4.00;;;;;;;13.16;64.90;100080.25;10332204;28;20455;-62
2023/01/02 03:08:15;;;;;;;6.15;3.47;;;;;;;13.14;64.55;100076.91;10323964;28;20556;-62
2023/01/02 03:13:18;;;;;;;6.03;3.92;;;;;;;13.17;64.78;100068.59;10293232;28;20049;-64
2023/01/02 03:18:37;;;;;;;6.35;3.75;;;;;;;13.21;64.50;100073.50;10321536;28;20147;-61
2023/01/02 03:23:49;;;;;;;5.70;3.58;;;;;;;13.20;64.51;100069.13;10336776;28;20097;-61
2023/01/02 03:28:57;;;;;;;8.25;3.35;;;;;;;13.13;64.85;100072.53;10320575;28;20064;-62
2023/01/02 03:34:07;;;;;;;4.72;3.30;;;;;;;13.08;65.15;100071.13;10332448;28;20060;-62
2023/01/02 03:39:14;;;;;;;6.28;3.85;;;;;;;13.08;64.94;100059.59;10325493;28;21205;-62
2023/01/02 03:44:16;;;;;;;8.30;3.63;;;;;;;13.14;65.08;100045.66;10331984;28;20049;-62
2023/01/02 03:49:26;;;;;;;7.53;3.95;;;;;;;13.11;65.01;100063.84;10316328;28;20049;-61
2023/01/02 03:54:28;;;;;;;6.90;3.90;;;;;;;13.13;64.98;100076.03;10317046;28;20052;-61
2023/01/02 03:59:44;;;;;;;8.75;3.63;;;;;;;13.05;64.91;100097.31;10313217;28;20107;-62
2023/01/02 04:05:16;;;;;;;5.82;3.78;;;;;;;13.00;65.21;100097.75;10343301;28;20049;-62
2023/01/02 04:10:21;;;;;;;7.45;3.83;;;;;;;12.88;65.37;100099.72;10337826;28;20112;-62
2023/01/02 04:15:26;;;;;;;4.57;3.25;;;;;;;12.85;65.44;100093.81;10342469;28;20054;-62
2023/01/02 04:20:32;;;;;;;;;;;;;;;12.82;65.44;100083.41;10317019;28;20049;-62
2023/01/02 04:25:43;;;;;;;6.28;3.63;;;;;;;12.76;64.86;100070.63;10300055;28;19993;-61
2023/01/02 04:30:56;;;;;;;4.17;3.33;;;;;;;12.80;64.92;100067.53;10325262;28;20729;-61
2023/01/02 04:35:57;;;;;;;5.45;3.38;;;;;;;12.81;64.43;100076.41;10316323;28;20295;-61
2023/01/02 04:40:59;;;;;;;7.63;3.35;;;;;;;12.85;64.19;100083.13;10278343;28;20054;-62
2023/01/02 04:46:03;;;;;;;;;;;;;;;12.86;63.95;100096.31;10282744;28;20550;-62
2023/01/02 04:51:12;;;;;;;3.88;2.80;;;;;;;12.89;64.19;100100.56;10296054;28;20289;-62
2023/01/02 04:56:16;;;;;;;3.95;2.67;;;;;;;12.89;63.92;100121.94;10345316;28;20060;-61
2023/01/02 05:01:20;;;;;;;8.07;3.00;;;;;;;12.87;63.74;100114.06;10302245;28;20056;-62
2023/01/02 05:06:22;;;;;;;7.80;4.32;;;;;;;12.88;63.91;100114.88;10307768;28;20591;-61
2023/01/02 05:11:23;;;;;;;8.13;3.45;;;;;;;12.90;63.89;100108.44;10304435;28;20170;-63
2023/01/02 05:16:24;;;;;;;6.82;3.40;;;;;;;12.93;63.55;100112.66;10335858;28;20142;-62
2023/01/02 05:26:46;;;;;;;7.80;3.22;;;;;;;12.83;63.64;100117.16;10322748;28;20659;-62
2023/01/02 05:31:48;;;;;;;7.00;3.15;;;;;;;12.86;64.21;100122.22;10311963;28;20609;-62
2023/01/02 05:36:52;;;;;;;5.03;2.90;;;;;;;12.91;63.74;100130.66;10297091;28;20060;-64
2023/01/02 05:41:53;;;;;;;7.50;4.13;;;;;;;12.90;63.80;100155.69;10339684;28;20506;-61
2023/01/02 05:46:57;;;;;;;5.78;3.53;;;;;;;12.89;63.76;100153.97;10286769;28;20167;-62
2023/01/02 05:51:58;;;;;;;3.95;3.28;;;;;;;12.89;63.80;100145.97;10350767;28;20054;-62
2023/01/02 05:57:00;;;;;;;5.60;3.25;;;;;;;12.93;63.79;100166.09;10347635;28;20049;-61
2023/01/02 06:02:01;;;;;;;4.93;2.95;;;;;;;12.96;63.59;100159.63;10350315;28;20134;-61
2023/01/02 06:07:04;;;;;;;7.53;3.33;;;;;;;12.94;63.04;100162.44;10352508;28;20873;-61
2023/01/02 06:12:05;;;;;;;6.90;4.10;;;;;;;12.94;63.39;100162.44;10351719;28;20346;-61
2023/01/02 06:17:07;;;;;;;7.03;3.70;;;;;;;12.98;63.28;100158.47;10320364;28;20909;-61
2023/01/02 06:22:09;;;;;;;6.78;3.60;;;;;;;13.06;63.25;100155.94;10346061;28;20057;-62
2023/01/02 06:27:10;;;;;;;8.05;3.70;;;;;;;13.09;63.15;100144.97;10338382;28;20600;-63
2023/01/02 06:32:12;;;;;;;6.18;3.50;;;;;;;13.08;62.68;100170.00;10316644;28;20064;-62
2023/01/02 06:37:13;;;;;;;6.28;3.42;;;;;;;13.11;62.99;100152.00;10340487;28;20173;-61
2023/01/02 06:42:14;;;;;;;7.85;3.80;;;;;;;13.11;63.10;100162.72;10337996;28;20824;-61
2023/01/02 06:47:16;;;;;;;4.18;3.60;;;;;;;13.18;63.00;100166.47;10328364;28;20510;-65
2023/01/02 06:52:18;;;;;;;7.03;3.28;;;;;;;13.16;62.04;100171.13;10348617;28;20560;-62
2023/01/02 06:57:19;;;;;;;6.45;3.17;;;;;;;13.16;62.03;100174.63;10340163;28;20045;-62
2023/01/02 07:02:22;;;;;;;4.07;3.17;;;;;;;13.15;62.15;100174.78;10322573;28;20053;-62
2023/01/02 07:07:24;;;;;;;6.25;3.75;;;;;;;13.16;61.86;100163.13;10331364;28;20069;-62
2023/01/02 07:12:25;;;;;;;5.18;3.13;;;;;;;13.17;61.86;100172.81;10342976;28;20053;-61
2023/01/02 07:17:26;;;;;;;9.82;3.28;;;;;;;13.17;61.60;100162.13;10346450;28;20272;-64
2023/01/02 07:22:28;;;;;;;4.65;3.30;;;;;;;13.16;61.66;100149.75;10319546;28;20057;-62
2023/01/02 07:27:30;;;;;;;5.18;4.20;;;;;;;13.16;60.82;100160.44;10324357;28;20057;-62
2023/01/02 07:32:31;;;;;;;9.13;3.25;;;;;;;13.17;61.00;100167.47;10328613;28;20527;-65
2023/01/02 07:37:33;;;;;;;4.47;3.13;;;;;;;13.18;60.96;100159.31;10319108;28;20119;-62
2023/01/02 07:42:35;;;;;;;6.18;3.38;;;;;;;13.27;59.68;100161.13;10312482;28;20115;-62
2023/01/02 07:47:36;;;;;;;10.13;3.00;;;;;;;13.27;58.69;100157.63;10311017;28;20648;-63
2023/01/02 07:52:37;;;;;;;4.60;2.90;;;;;;;13.31;58.59;100153.66;10336807;28;20114;-62
2023/01/02 07:57:39;;;;;;;5.60;2.63;;;;;;;13.37;57.33;100163.81;10338285;28;20052;-63
2023/01/02 08:02:40;;;;;;;6.95;2.63;;;;;;;13.61;58.01;100170.50;10344157;28;20089;-53
2023/01/02 08:07:43;;;;;;;8.75;3.10;;;;;;;13.69;56.14;100183.16;10330299;28;20058;-54
2023/01/02 08:12:45;;;;;;;9.07;3.70;;;;;;;13.69;54.83;100184.00;10332719;28;20136;-63
2023/01/02 08:17:47;;;;;;;7.57;3.30;;;;;;;13.66;54.71;100188.78;10330053;28;20057;-62
2023/01/02 08:22:48;;;;;;;7.15;2.97;;;;;;;13.68;54.94;100193.00;10357947;28;20408;-62
2023/01/02 08:27:49;;;;;;;8.25;2.63;;;;;;;13.71;55.29;100186.53;10352201;28;20190;-62
2023/01/02 08:32:51;;;;;;;6.15;2.28;;;;;;;13.74;54.06;100200.44;10340133;28;20172;-61
2023/01/02 08:37:52;;;;;;;5.25;2.58;;;;;;;13.78;53.70;100199.19;10331279;28;20065;-62
2023/01/02 08:42:54;;;;;;;6.97;2.85;;;;;;;13.87;53.02;100236.75;10326908;28;20051;-61
2023/01/02 08:47:55;;;;;;;10.80;3.60;;;;;;;13.86;53.35;100237.75;10350338;28;20056;-61
2023/01/02 08:52:57;;;;;;;10.90;3.10;;;;;;;13.89;53.46;100226.75;10357247;28;20128;-63
2023/01/02 08:57:58;;;;;;;10.48;2.50;;;;;;;13.91;53.16;100235.47;10350236;28;20584;-63
2023/01/02 09:03:00;;;;;;;6.03;2.13;;;;;;;13.94;53.08;100248.56;10350684;28;20052;-62
2023/01/02 09:08:01;;;;;;;8.85;2.78;;;;;;;13.97;52.77;100257.13;10340001;28;20455;-63
2023/01/02 09:13:03;;;;;;;8.73;2.30;;;;;;;14.01;52.91;100252.34;10325848;28;20057;-62
2023/01/02 09:18:05;;;;;;;10.82;2.38;;;;;;;14.08;52.48;100264.16;10332798;28;20110;-67
2023/01/02 09:23:06;;;;;;;9.77;2.50;;;;;;;14.10;52.22;100267.53;10352198;28;20562;-64
2023/01/02 09:28:07;;;;;;;7.63;2.20;;;;;;;14.17;51.73;100278.47;10317862;28;20045;-62
2023/01/02 09:33:09;;;;;;;6.15;2.38;;;;;;;14.16;51.93;100287.50;10329017;28;20167;-63
2023/01/02 09:38:11;;;;;;;7.43;2.42;;;;;;;14.24;52.06;100286.78;10346882;28;20521;-64
2023/01/02 09:43:16;;;;;;;7.57;2.38;;;;;;;14.25;51.85;100296.50;10337269;28;21652;-65
2023/01/02 09:48:19;;;;;;;8.32;3.17;;;;;;;14.23;52.27;100290.44;10320500;28;20404;-63
2023/01/02 09:53:21;;;;;;;9.57;2.97;;;;;;;14.21;52.41;100300.47;10338591;28;20761;-62
2023/01/02 09:58:42;;;;;;;7.68;3.08;;;;;;;14.22;51.87;100307.50;10331461;28;20410;-64
2023/01/02 10:04:10;;;;;;;7.07;2.90;;;;;;;14.24;52.20;100317.06;10353577;28;20407;-63
2023/01/02 10:09:33;;;;;;;6.32;2.42;;;;;;;14.31;52.58;100322.69;10344981;28;20045;-61
2023/01/02 10:14:52;;;;;;;6.72;2.05;;;;;;;14.35;52.42;100320.56;10335151;28;20178;-63
2023/01/02 10:20:00;;;;;;;7.00;2.40;;;;;;;14.27;53.80;100326.66;10344483;28;20063;-65
2023/01/02 10:25:32;;;;;;;11.27;2.67;;;;;;;14.21;55.95;100321.88;10352431;28;20065;-66
2023/01/02 10:30:42;;;;;;;8.45;2.83;;;;;;;14.19;57.44;100318.50;10347610;28;20049;-63
2023/01/02 10:35:52;;;;;;;10.48;3.33;;;;;;;14.17;57.41;100312.44;10351569;28;20053;-60
2023/01/02 10:40:53;;;;;;;7.07;2.50;;;;;;;14.11;57.75;100295.97;10349483;28;20426;-60
2023/01/02 10:45:55;;;;;;;6.43;2.53;;;;;;;14.11;58.20;100306.69;10352355;28;20132;-61
2023/01/02 10:51:01;;;;;;;7.53;2.38;;;;;;;14.03;58.54;100314.59;10358402;28;20049;-62
2023/01/02 10:56:15;;;;;;;8.57;2.42;;;;;;;14.03;59.33;100319.94;10360811;28;20083;-66
2023/01/02 11:01:20;;;;;;;8.35;3.03;;;;;;;14.01;59.56;100319.25;10352661;28;20680;-61
2023/01/02 11:06:29;;;;;;;10.32;2.80;;;;;;;14.03;59.65;100340.50;10360575;28;20466;-62
2023/01/02 11:11:51;;;;;;;5.45;2.08;;;;;;;14.02;60.83;100328.97;10369408;28;20080;-61
2023/01/02 11:17:00;;;;;;;7.72;2.80;;;;;;;13.95;61.53;100333.22;10374981;28;20358;-66
2023/01/02 11:22:01;;;;;;;7.28;2.95;;;;;;;13.91;62.03;100337.16;10358465;28;20042;-61
2023/01/02 11:27:03;;;;;;;7.88;2.75;;;;;;;13.96;61.98;100340.22;10358138;28;20065;-61
2023/01/02 11:32:05;;;;;;;7.28;2.85;;;;;;;13.92;62.45;100354.91;10363428;28;20840;-62
2023/01/02 11:37:10;;;;;;;7.65;2.58;;;;;;;13.99;63.07;100353.34;10371108;28;20064;-62
2023/01/02 11:47:43;;;;;;;6.55;2.67;;;;;;;13.72;66.24;100332.66;10366709;28;20053;-62
2023/01/02 11:52:54;;;;;;;6.87;2.63;;;;;;;13.54;67.48;100343.22;10354930;28;20973;-63
2023/01/02 11:58:04;;;;;;;6.25;2.58;;;;;;;13.43;69.63;100345.03;10367041;28;20701;-63
2023/01/02 12:03:15;;;;;;;8.98;3.38;;;;;;;13.42;70.53;100338.03;10381006;28;20041;-62
2023/01/02 12:08:43;;;;;;;7.03;3.17;;;;;;;13.39;71.36;100345.47;10373363;28;20072;-62
2023/01/02 12:14:30;;;;;;;9.65;2.95;;;;;;;13.45;71.90;100360.97;10372809;28;20053;-63
2023/01/02 12:20:01;;;;;;;8.80;2.40;;;;;;;13.30;73.32;100365.84;10320970;28;20580;-61
2023/01/02 12:25:22;;;;;;;;;;;;;;;13.25;73.87;100360.88;10384236;28;20220;-61
2023/01/02 12:30:23;;;;;;;5.43;3.33;;;;;;;13.16;74.60;100353.69;10368634;28;19929;-62
2023/01/02 12:35:51;;;;;;;7.93;3.80;;;;;;;13.17;74.94;100366.09;10375929;28;20057;-63
2023/01/02 12:41:18;;;;;;;5.57;2.97;;;;;;;13.19;75.38;100365.94;10380303;28;20511;-61
2023/01/02 12:46:43;;;;;;;4.95;2.85;;;;;;;13.22;75.12;100371.03;10349049;28;20058;-61
2023/01/02 12:52:10;;;;;;;6.25;2.78;;;;;;;13.21;75.46;100361.31;10342870;28;20064;-62
2023/01/02 12:57:38;;;;;;;8.18;2.67;;;;;;;13.23;75.99;100381.56;10371181;28;20051;-62
2023/01/02 13:03:19;;;;;;;7.13;2.80;;;;;;;13.24;77.12;100393.09;10362159;28;20508;-62
2023/01/02 13:08:29;;;;;;;9.30;3.90;;;;;;;13.15;77.46;100384.09;10350063;28;20046;-62
2023/01/02 13:13:34;;;;;;;6.63;3.88;;;;;;;13.11;78.37;100387.19;10354176;28;20919;-62
2023/01/02 13:18:54;;;;;;;7.43;3.78;;;;;;;13.07;79.04;100384.75;10358479;28;20053;-61
2023/01/02 13:24:02;;;;;;;5.90;3.30;;;;;;;13.07;80.15;100389.28;10355099;28;20794;-62
2023/01/02 13:29:07;;;;;;;8.13;3.35;;;;;;;13.11;79.62;100381.84;10366870;28;20841;-62
2023/01/02 13:34:23;;;;;;;8.63;3.80;;;;;;;13.02;80.12;100373.66;10338276;28;20427;-62
2023/01/02 13:39:56;;;;;;;6.55;3.28;;;;;;;13.01;80.21;100387.97;10358722;28;20769;-62
2023/01/02 13:44:59;;;;;;;6.95;3.63;;;;;;;12.92;80.69;100386.13;10356531;28;20050;-61
2023/01/02 13:50:21;;;;;;;9.13;3.45;;;;;;;13.05;79.91;100373.38;10364044;28;20151;-64
2023/01/02 13:55:31;;;;;;;7.80;3.30;;;;;;;13.07;79.07;100368.72;10373604;28;20525;-62
2023/01/02 14:00:36;;;;;;;7.10;3.20;;;;;;;13.04;80.50;100360.97;10358967;28;20106;-63
2023/01/02 14:06:02;;;;;;;9.15;3.47;;;;;;;13.07;80.70;100382.09;10365457;28;20054;-61
2023/01/02 14:11:15;;;;;;;9.82;3.75;;;;;;;13.09;80.46;100382.81;10368966;28;20205;-61
2023/01/02 14:16:44;;;;;;;6.13;2.85;;;;;;;12.91;81.13;100397.81;10364889;28;20824;-61
2023/01/02 14:22:02;;;;;;;7.10;3.35;;;;;;;12.96;80.90;100395.56;10367767;28;20059;-62
2023/01/02 14:27:16;;;;;;;6.03;3.03;;;;;;;12.98;80.78;100396.28;10376297;28;20056;-61
2023/01/02 14:32:33;;;;;;;4.93;2.60;;;;;;;13.02;81.02;100402.22;10360063;28;20057;-65
2023/01/02 14:37:48;;;;;;;6.22;3.53;;;;;;;13.01;80.95;100398.66;10380288;28;20164;-62
2023/01/02 14:43:29;;;;;;;6.43;2.88;;;;;;;13.08;80.98;100399.00;10378981;28;20060;-64
2023/01/02 14:48:44;;;;;;;5.93;3.15;;;;;;;12.99;80.85;100418.50;10362112;28;20049;-64
2023/01/02 14:54:08;;;;;;;11.95;4.30;;;;;;;12.91;81.79;100429.88;10355008;28;20486;-63
2023/01/02 14:59:16;;;;;;;;;;;;;;;12.82;82.95;100427.97;10362070;28;20041;-62
2023/01/02 15:04:38;;;;;;;11.52;4.03;;;;;;;12.69;84.60;100399.69;10363126;28;19925;-62
2023/01/02 15:09:44;;;;;;;;;;;;;;;12.54;87.85;100423.22;10362089;28;20915;-63
2023/01/02 15:14:45;;;;;;;7.90;3.88;;;;;;;12.52;89.60;100453.69;10357565;28;20040;-62
2023/01/02 15:19:48;;;;;;;7.35;3.58;;;;;;;12.61;91.33;100460.94;10356677;28;20538;-62
2023/01/02 15:24:52;;;;;;;6.20;3.50;;;;;;;12.58;92.47;100463.88;10346559;28;20070;-62
2023/01/02 15:29:55;;;;;;;;;;;;;;;12.45;92.90;100476.56;10360286;28;20079;-62
2023/01/02 15:35:11;;;;;;;4.85;2.03;;;;;;;12.38;92.78;100509.13;10334311;28;20181;-62
2023/01/02 15:40:41;;;;;;;3.10;1.55;;;;;;;12.29;90.45;100499.19;10358242;28;20041;-61
2023/01/02 15:45:46;;;;;;;2.97;1.13;;;;;;;12.12;91.26;100489.94;10353392;28;20679;-62
2023/01/02 15:50:50;;;;;;;3.80;1.58;;;;;;;12.08;91.95;100522.34;10357184;28;20459;-62
2023/01/02 15:55:52;;;;;;;3.60;1.23;;;;;;;11.99;91.82;100554.16;10357094;28;20054;-62
2023/01/02 16:01:19;;;;;;;3.00;1.00;;;;;;;11.93;92.29;100567.97;10338260;28;20053;-63
2023/01/02 16:06:27;;;;;;;3.03;1.17;;;;;;;11.87;93.51;100571.13;10291889;28;20057;-63
2023/01/02 16:11:30;;;;;;;5.60;1.77;;;;;;;11.83;94.97;100577.69;10334882;28;20838;-66
2023/01/02 16:17:17;;;;;;;3.13;1.73;;;;;;;11.76;97.38;100571.97;10330796;28;20828;-63
2023/01/02 16:22:24;;;;;;;3.72;1.55;;;;;;;11.74;95.20;100599.72;10335359;28;20119;-63
2023/01/02 16:27:45;;;;;;;1.92;1.55;;;;;;;11.82;96.28;100594.66;10342212;28;20037;-63
2023/01/02 16:32:47;;;;;;;4.55;1.70;;;;;;;11.79;94.52;100568.22;10329853;28;20054;-65
2023/01/02 16:37:55;;;;;;;4.18;2.25;;;;;;;11.80;95.35;100573.44;10312651;28;20049;-61
2023/01/02 16:43:05;;;;;;;3.70;3.30;;;;;;;11.84;95.37;100580.22;10339471;28;20126;-61
2023/01/02 16:48:13;;;;;;;4.50;3.30;;;;;;;11.75;95.87;100561.44;10344554;28;20107;-62
2023/01/02 16:53:18;;;;;;;5.00;3.20;;;;;;;11.78;95.43;100569.19;10357138;28;20100;-61
2023/01/02 16:58:21;;;;;;;4.78;2.38;;;;;;;11.52;97.11;100593.47;10342102;28;20064;-62
2023/01/02 17:03:25;;;;;;;5.68;3.22;;;;;;;11.44;97.20;100604.72;10350795;28;20080;-61
2023/01/02 17:08:27;;;;;;;5.07;2.70;;;;;;;11.43;95.81;100620.84;10340685;28;20053;-62
2023/01/02 17:13:29;;;;;;;4.20;2.50;;;;;;;11.58;95.80;100640.13;10352390;28;20053;-60
2023/01/02 17:18:30;;;;;;;3.63;2.65;;;;;;;11.49;95.37;100653.19;10321710;28;20138;-61
2023/01/02 17:23:32;;;;;;;6.03;3.33;;;;;;;11.41;96.01;100674.28;10333536;28;20046;-60
2023/01/02 17:28:33;;;;;;;4.53;2.65;;;;;;;11.21;96.03;100683.78;10341093;28;20045;-60
2023/01/02 17:33:35;;;;;;;3.70;2.05;;;;;;;11.17;95.45;100698.31;10336920;28;20046;-63
2023/01/02 17:38:38;;;;;;;3.95;2.90;;;;;;;11.12;96.65;100705.81;10343123;28;20060;-60
2023/01/02 17:43:39;;;;;;;2.55;1.80;;;;;;;11.21;96.14;100721.09;10336992;28;20510;-60
2023/01/02 17:49:01;;;;;;;2.50;2.00;;;;;;;11.22;94.40;100728.13;10333256;28;20053;-61
2023/01/02 17:54:03;;;;;;;2.92;1.70;;;;;;;11.16;93.86;100733.91;10348356;28;20061;-60
2023/01/02 17:59:05;;;;;;;3.50;1.92;;;;;;;11.28;93.29;100737.47;10350445;28;20056;-60
2023/01/02 18:04:07;;;;;;;4.03;3.50;;;;;;;11.36;92.34;100748.41;10353832;28;20132;-60
2023/01/02 18:09:08;;;;;;;2.17;1.52;;;;;;;11.18;90.25;100750.63;10355607;28;20049;-61
2023/01/02 18:14:17;;;;;;;3.78;1.50;;;;;;;11.00;91.44;100765.34;10343097;28;20072;-60
2023/01/02 18:19:23;;;;;;;3.75;2.58;;;;;;;11.02;91.79;100766.94;10347119;28;20222;-61
2023/01/02 18:24:29;;;;;;;3.30;1.80;;;;;;;11.01;91.44;100775.03;10324666;28;20064;-62
2023/01/02 18:29:31;;;;;;;4.03;2.15;;;;;;;10.99;91.20;100795.59;10326468;28;20079;-65
2023/01/02 18:34:41;;;;;;;3.20;2.22;;;;;;;11.00;92.17;100810.63;10314617;28;20041;-61
2023/01/02 18:39:59;;;;;;;2.97;1.80;;;;;;;11.03;91.43;100816.56;10337471;28;20116;-66
2023/01/02 18:45:01;;;;;;;;;;;;;;;11.09;91.31;100817.94;10320775;28;20056;-61
2023/01/02 18:50:34;;;;;;;2.00;1.65;;;;;;;10.96;90.99;100824.16;10322346;28;19935;-60
2023/01/02 18:55:36;;;;;;;1.70;1.33;;;;;;;10.81;90.82;100837.75;10290974;28;20564;-61
2023/01/02 19:00:41;;;;;;;2.13;1.80;;;;;;;10.78;90.99;100841.50;10348859;28;22205;-61
2023/01/02 19:05:43;;;;;;;1.58;1.48;;;;;;;10.79;89.98;100848.50;10329409;28;20052;-61
2023/01/02 19:10:52;;;;;;;3.80;2.00;;;;;;;10.69;91.03;100848.31;10333306;28;21227;-60
2023/01/02 19:15:56;;;;;;;2.30;1.92;;;;;;;10.53;91.67;100851.22;10347414;28;20201;-60
2023/01/02 19:21:07;;;;;;;2.70;1.73;;;;;;;10.56;92.01;100864.31;10336219;28;20080;-60
2023/01/02 19:26:17;;;;;;;3.00;1.55;;;;;;;10.50;91.14;100863.91;10328447;28;20796;-61
2023/01/02 19:31:19;;;;;;;1.85;1.40;;;;;;;10.44;90.72;100865.19;10332837;28;20057;-60
2023/01/02 19:36:30;;;;;;;2.72;1.55;;;;;;;10.39;90.70;100875.31;10323602;28;20048;-60
2023/01/02 19:46:51;;;;;;;2.78;2.10;;;;;;;10.36;90.59;100891.50;10338660;28;20701;-59
2023/01/02 19:51:53;;;;;;;2.83;1.90;;;;;;;10.49;88.95;100897.63;10344274;28;20054;-60
2023/01/02 19:56:54;;;;;;;1.88;1.23;;;;;;;10.32;89.07;100916.56;10335445;28;20049;-60
2023/01/02 20:01:56;;;;;;;2.17;1.65;;;;;;;10.29;88.81;100927.44;10328266;28;20543;-60
2023/01/02 20:06:58;;;;;;;3.20;1.40;;;;;;;10.33;88.92;100915.59;10325736;28;20378;-59
2023/01/02 20:17:20;;;;;;;2.53;1.77;;;;;;;10.36;87.79;100942.06;10328309;28;20044;-60
2023/01/02 20:22:22;;;;;;;3.05;1.40;;;;;;;10.29;86.83;100948.72;10322223;28;20057;-60
2023/01/02 20:27:23;;;;;;;2.10;1.27;;;;;;;10.27;87.74;100959.47;10337074;28;20056;-61
2023/01/02 20:32:26;;;;;;;2.38;1.58;;;;;;;10.23;87.31;100956.16;10348259;28;20079;-60
2023/01/02 20:37:29;;;;;;;1.40;1.30;;;;;;;10.23;86.42;100974.78;10340050;28;20052;-60
2023/01/02 20:42:31;;;;;;;3.47;1.10;;;;;;;10.26;87.48;100987.88;10329881;28;21033;-61
2023/01/02 20:47:35;;;;;;;2.40;1.65;;;;;;;10.27;85.85;100986.91;10349373;28;20045;-60
2023/01/02 20:52:36;;;;;;;1.45;1.10;;;;;;;10.24;85.41;100997.78;10341282;28;20049;-61
2023/01/02 20:57:38;;;;;;;1.48;1.05;;;;;;;10.12;85.38;101003.91;10337520;28;20199;-61
2023/01/02 21:02:39;;;;;;;1.20;1.10;;;;;;;10.07;86.23;101016.66;10343185;28;20325;-61
2023/01/02 21:07:41;;;;;;;1.90;1.05;;;;;;;9.99;86.95;101025.16;10349380;28;20741;-62
2023/01/02 21:18:03;;;;;;;1.80;1.27;;;;;;;9.79;87.62;101045.06;10338556;28;20518;-62
2023/01/02 21:23:04;;;;;;;1.52;0.85;;;;;;;9.76;87.52;101041.75;10346331;28;20056;-60
2023/01/02 21:28:06;;;;;;;1.58;0.68;;;;;;;9.75;87.31;101032.06;10338791;28;20171;-60
2023/01/02 21:33:09;;;;;;;1.38;0.82;;;;;;;9.75;87.18;101048.03;10333223;28;20144;-60
2023/01/02 21:38:12;;;;;;;1.70;1.33;;;;;;;9.69;87.22;101052.78;10348793;28;20126;-59
2023/01/02 21:43:13;;;;;;;1.67;0.90;;;;;;;9.50;88.55;101042.47;10333885;28;20049;-60
2023/01/02 21:48:15;;;;;;;1.08;0.82;;;;;;;9.47;88.26;101071.03;10349156;28;20610;-63
2023/01/02 21:53:16;;;;;;;1.10;0.63;;;;;;;9.52;88.96;101076.94;10346292;28;20149;-60
2023/01/02 21:58:18;;;;;;;1.45;0.93;;;;;;;9.46;87.75;101091.44;10341081;28;20634;-61
2023/01/02 22:03:19;;;;;;;1.40;0.70;;;;;;;9.45;87.77;101095.06;10326556;28;20068;-60
2023/01/02 22:08:21;;;;;;;2.15;0.73;;;;;;;9.39;87.73;101095.44;10324471;28;20054;-60
2023/01/02 22:13:23;;;;;;;1.00;0.70;;;;;;;9.40;88.08;101113.09;10341137;28;20136;-60
2023/01/02 22:18:24;;;;;;;1.80;1.00;;;;;;;9.41;87.57;101109.47;10346062;28;20611;-60
2023/01/02 22:23:26;;;;;;;1.90;1.13;;;;;;;9.35;87.67;101120.47;10349234;28;20196;-60
2023/01/02 22:28:28;;;;;;;1.60;1.02;;;;;;;9.40;87.72;101129.03;10345248;28;20054;-62
2023/01/02 22:33:30;;;;;;;1.13;0.70;;;;;;;9.43;87.37;101128.84;10326605;28;20082;-65
2023/01/02 22:38:33;;;;;;;2.78;1.33;;;;;;;9.40;87.88;101144.09;10326942;28;20723;-61
2023/01/02 22:43:44;;;;;;;2.20;1.00;;;;;;;9.33;87.68;101155.13;10347559;28;20178;-61
2023/01/02 22:48:46;;;;;;;1.70;1.13;;;;;;;9.27;87.85;101157.31;10306768;28;20061;-61
2023/01/02 22:53:47;;;;;;;1.83;1.17;;;;;;;9.31;88.56;101167.66;10341767;28;20056;-61
2023/01/02 22:58:49;;;;;;;0.98;0.88;;;;;;;9.47;87.66;101158.72;10309303;28;20132;-60
2023/01/02 23:03:51;;;;;;;1.25;1.15;;;;;;;9.63;86.81;101178.09;10309377;28;21121;-60
2023/01/02 23:08:53;;;;;;;1.20;0.85;;;;;;;9.65;87.03;101180.66;10314090;28;20418;-61
2023/01/02 23:13:54;;;;;;;1.60;0.70;;;;;;;9.55;86.55;101186.56;10334901;28;20045;-61
2023/01/02 23:19:17;;;;;;;1.20;0.60;;;;;;;9.54;86.85;101182.19;10341988;28;20147;-61
2023/01/02 23:24:29;;;;;;;0.75;0.52;;;;;;;9.61;86.67;101195.09;10341179;28;20183;-61
2023/01/02 23:29:31;;;;;;;1.23;0.68;;;;;;;9.55;86.90;101205.16;10311888;28;20047;-61
2023/01/02 23:34:32;;;;;;;1.17;1.00;;;;;;;9.55;87.44;101207.81;10332342;28;20050;-61
2023/01/02 23:39:34;;;;;;;0.82;0.63;;;;;;;9.53;87.02;101199.09;10335772;28;20104;-61
2023/01/02 23:44:37;;;;;;;2.20;1.40;;;;;;;9.51;87.52;101200.13;10347121;28;20058;-61
2023/01/02 23:49:38;;;;;;;1.75;0.70;;;;;;;9.58;87.44;101187.31;10344892;28;20125;-60
2023/01/02 23:54:40;;;;;;;0.95;0.60;;;;;;;9.65;87.13;101196.63;10338360;28;20139;-59
2023/01/02 23:59:41;;;;;;;2.20;0.70;;;;;;;9.62;86.56;101197.66;10347420;28;20111;-63
